Terminal Aerodrome Forecast
Issued by NWS Wichita, KS

Home | Current Version | Previous Version | Graphics & Text | Print | Product List | Glossary On
Versions: 1 2 3 4 5 6 7 8 9 10 11 12 13 14 15 16 17 18 19
000
FTUS43 KICT 210800 AAA
TAFICT
TAF AMD
KICT 210813Z 2108/2206 18012KT 5SM BR SKC
     FM211300 18012G18KT P6SM SKC
     FM211600 19018G25KT P6SM SKC
     FM220300 18015KT P6SM SKC=

USA.gov is the U.S. government's official web portal to all federal, state and local government web resources and services.